Aviation Digital Data Service (ADDS)

Output produced by TAFs form (0708 UTC 26 March 2017)
found at http://aviationweather.gov/adds/tafs/
 
KGJT 260532Z 2606/2706 34003KT P6SM VCSH SCT060 BKN120 
     TEMPO 2606/2609 -SHRA BKN040 
     FM261000 34004KT P6SM VCSH BKN045 
     FM261800 34006KT P6SM SCT100 
     FM262200 31007KT P6SM SCT250 
     FM270300 19005KT P6SM SCT200